sensor_id;sensor_type;location;lat;lon;timestamp;P1;durP1;ratioP1;P2;durP2;ratioP2
25497;SDS011;13406;53.380;7.226;2023-05-16T00:01:53;11.40;;;2.87;;
25497;SDS011;13406;53.380;7.226;2023-05-16T00:04:19;8.47;;;2.10;;
25497;SDS011;13406;53.380;7.226;2023-05-16T00:06:45;11.67;;;2.87;;
25497;SDS011;13406;53.380;7.226;2023-05-16T00:09:11;10.60;;;2.80;;
25497;SDS011;13406;53.380;7.226;2023-05-16T00:11:36;12.40;;;2.30;;
25497;SDS011;13406;53.380;7.226;2023-05-16T00:14:02;11.70;;;3.03;;
25497;SDS011;13406;53.380;7.226;2023-05-16T00:16:27;8.70;;;2.50;;
25497;SDS011;13406;53.380;7.226;2023-05-16T00:18:54;11.43;;;2.43;;
25497;SDS011;13406;53.380;7.226;2023-05-16T00:21:21;17.17;;;3.00;;
25497;SDS011;13406;53.380;7.226;2023-05-16T00:23:47;12.03;;;2.67;;
25497;SDS011;13406;53.380;7.226;2023-05-16T00:26:12;11.77;;;2.90;;
25497;SDS011;13406;53.380;7.226;2023-05-16T00:28:38;12.37;;;2.70;;
25497;SDS011;13406;53.380;7.226;2023-05-16T00:31:03;8.37;;;2.77;;
25497;SDS011;13406;53.380;7.226;2023-05-16T00:33:29;9.73;;;2.67;;
25497;SDS011;13406;53.380;7.226;2023-05-16T00:35:55;9.30;;;2.57;;
25497;SDS011;13406;53.380;7.226;2023-05-16T00:38:20;7.60;;;1.93;;
25497;SDS011;13406;53.380;7.226;2023-05-16T00:40:46;13.87;;;2.83;;
25497;SDS011;13406;53.380;7.226;2023-05-16T00:43:11;11.07;;;2.80;;
25497;SDS011;13406;53.380;7.226;2023-05-16T00:45:37;11.63;;;2.90;;
25497;SDS011;13406;53.380;7.226;2023-05-16T00:48:02;10.97;;;3.57;;
25497;SDS011;13406;53.380;7.226;2023-05-16T00:50:28;12.13;;;2.30;;
25497;SDS011;13406;53.380;7.226;2023-05-16T00:52:53;6.47;;;1.73;;
25497;SDS011;13406;53.380;7.226;2023-05-16T00:55:19;8.63;;;2.47;;
25497;SDS011;13406;53.380;7.226;2023-05-16T00:57:45;6.83;;;2.23;;
25497;SDS011;13406;53.380;7.226;2023-05-16T01:00:10;9.20;;;2.83;;
25497;SDS011;13406;53.380;7.226;2023-05-16T01:02:38;7.60;;;1.60;;
25497;SDS011;13406;53.380;7.226;2023-05-16T01:05:04;6.37;;;1.97;;
25497;SDS011;13406;53.380;7.226;2023-05-16T01:07:31;9.43;;;2.03;;
25497;SDS011;13406;53.380;7.226;2023-05-16T01:09:56;8.03;;;2.17;;
25497;SDS011;13406;53.380;7.226;2023-05-16T01:12:26;10.70;;;2.53;;
25497;SDS011;13406;53.380;7.226;2023-05-16T01:15:03;7.60;;;2.07;;
25497;SDS011;13406;53.380;7.226;2023-05-16T01:26:25;10.77;;;2.30;;
25497;SDS011;13406;53.380;7.226;2023-05-16T01:28:52;10.20;;;2.23;;
25497;SDS011;13406;53.380;7.226;2023-05-16T01:31:21;4.60;;;1.53;;
25497;SDS011;13406;53.380;7.226;2023-05-16T01:33:48;9.03;;;3.13;;
25497;SDS011;13406;53.380;7.226;2023-05-16T01:36:20;9.13;;;2.90;;
25497;SDS011;13406;53.380;7.226;2023-05-16T01:43:54;9.40;;;1.90;;
25497;SDS011;13406;53.380;7.226;2023-05-16T01:46:26;10.20;;;2.27;;
25497;SDS011;13406;53.380;7.226;2023-05-16T01:51:50;5.10;;;1.87;;
25497;SDS011;13406;53.380;7.226;2023-05-16T01:54:19;7.87;;;1.97;;
25497;SDS011;13406;53.380;7.226;2023-05-16T01:56:50;6.17;;;1.70;;
25497;SDS011;13406;53.380;7.226;2023-05-16T01:59:18;9.60;;;1.87;;
25497;SDS011;13406;53.380;7.226;2023-05-16T02:01:46;11.63;;;2.67;;
25497;SDS011;13406;53.380;7.226;2023-05-16T02:04:11;9.20;;;2.60;;
25497;SDS011;13406;53.380;7.226;2023-05-16T02:06:39;10.53;;;2.13;;
25497;SDS011;13406;53.380;7.226;2023-05-16T02:09:05;8.97;;;2.40;;
25497;SDS011;13406;53.380;7.226;2023-05-16T02:11:30;9.63;;;2.00;;
25497;SDS011;13406;53.380;7.226;2023-05-16T02:13:56;7.07;;;2.10;;
25497;SDS011;13406;53.380;7.226;2023-05-16T02:16:21;8.67;;;2.37;;
25497;SDS011;13406;53.380;7.226;2023-05-16T02:18:46;6.03;;;1.50;;
25497;SDS011;13406;53.380;7.226;2023-05-16T02:21:12;6.67;;;2.17;;
25497;SDS011;13406;53.380;7.226;2023-05-16T02:23:37;6.03;;;1.80;;
25497;SDS011;13406;53.380;7.226;2023-05-16T02:26:03;8.00;;;2.13;;
25497;SDS011;13406;53.380;7.226;2023-05-16T02:28:28;7.73;;;2.33;;
25497;SDS011;13406;53.380;7.226;2023-05-16T02:30:57;7.30;;;2.17;;
25497;SDS011;13406;53.380;7.226;2023-05-16T02:33:24;6.60;;;1.90;;
25497;SDS011;13406;53.380;7.226;2023-05-16T02:35:51;10.77;;;2.63;;
25497;SDS011;13406;53.380;7.226;2023-05-16T02:38:17;8.00;;;1.93;;
25497;SDS011;13406;53.380;7.226;2023-05-16T02:40:44;11.70;;;2.80;;
25497;SDS011;13406;53.380;7.226;2023-05-16T02:43:10;10.17;;;2.20;;
25497;SDS011;13406;53.380;7.226;2023-05-16T02:45:36;7.80;;;1.90;;
25497;SDS011;13406;53.380;7.226;2023-05-16T02:48:01;9.40;;;2.03;;
25497;SDS011;13406;53.380;7.226;2023-05-16T02:50:27;8.10;;;2.37;;
25497;SDS011;13406;53.380;7.226;2023-05-16T02:52:52;5.80;;;2.10;;
25497;SDS011;13406;53.380;7.226;2023-05-16T02:55:17;6.40;;;1.70;;
25497;SDS011;13406;53.380;7.226;2023-05-16T02:57:43;8.23;;;1.60;;
25497;SDS011;13406;53.380;7.226;2023-05-16T03:00:08;8.97;;;2.03;;
25497;SDS011;13406;53.380;7.226;2023-05-16T03:02:35;8.40;;;2.50;;
25497;SDS011;13406;53.380;7.226;2023-05-16T03:05:01;9.00;;;2.27;;
25497;SDS011;13406;53.380;7.226;2023-05-16T03:07:28;5.77;;;1.90;;
25497;SDS011;13406;53.380;7.226;2023-05-16T03:09:53;7.43;;;2.27;;
25497;SDS011;13406;53.380;7.226;2023-05-16T03:12:19;10.57;;;2.37;;
25497;SDS011;13406;53.380;7.226;2023-05-16T03:14:44;8.03;;;2.00;;
25497;SDS011;13406;53.380;7.226;2023-05-16T03:17:10;13.30;;;3.60;;
25497;SDS011;13406;53.380;7.226;2023-05-16T03:19:35;9.93;;;2.10;;
25497;SDS011;13406;53.380;7.226;2023-05-16T03:22:01;7.30;;;1.90;;
25497;SDS011;13406;53.380;7.226;2023-05-16T03:24:28;6.70;;;2.30;;
25497;SDS011;13406;53.380;7.226;2023-05-16T03:26:53;8.50;;;2.37;;
25497;SDS011;13406;53.380;7.226;2023-05-16T03:29:19;8.00;;;1.80;;
25497;SDS011;13406;53.380;7.226;2023-05-16T03:31:44;4.33;;;1.67;;
25497;SDS011;13406;53.380;7.226;2023-05-16T03:34:10;8.10;;;1.73;;
25497;SDS011;13406;53.380;7.226;2023-05-16T03:36:35;9.50;;;2.10;;
25497;SDS011;13406;53.380;7.226;2023-05-16T03:39:02;6.63;;;1.90;;
25497;SDS011;13406;53.380;7.226;2023-05-16T03:41:28;10.90;;;1.83;;
25497;SDS011;13406;53.380;7.226;2023-05-16T03:43:53;6.83;;;1.70;;
25497;SDS011;13406;53.380;7.226;2023-05-16T03:46:18;5.87;;;1.70;;
25497;SDS011;13406;53.380;7.226;2023-05-16T03:48:44;6.73;;;1.50;;
25497;SDS011;13406;53.380;7.226;2023-05-16T03:51:09;6.57;;;1.63;;
25497;SDS011;13406;53.380;7.226;2023-05-16T03:53:35;7.20;;;1.83;;
25497;SDS011;13406;53.380;7.226;2023-05-16T03:56:01;4.10;;;1.83;;
25497;SDS011;13406;53.380;7.226;2023-05-16T03:58:28;7.27;;;1.90;;
25497;SDS011;13406;53.380;7.226;2023-05-16T04:00:53;6.40;;;2.30;;
25497;SDS011;13406;53.380;7.226;2023-05-16T04:03:19;10.37;;;2.60;;
25497;SDS011;13406;53.380;7.226;2023-05-16T04:05:52;5.50;;;2.27;;
25497;SDS011;13406;53.380;7.226;2023-05-16T04:08:17;6.23;;;1.80;;
25497;SDS011;13406;53.380;7.226;2023-05-16T04:10:42;4.63;;;2.03;;
25497;SDS011;13406;53.380;7.226;2023-05-16T04:13:08;6.23;;;1.90;;
25497;SDS011;13406;53.380;7.226;2023-05-16T04:15:33;10.37;;;2.03;;
25497;SDS011;13406;53.380;7.226;2023-05-16T04:17:59;6.10;;;1.70;;
25497;SDS011;13406;53.380;7.226;2023-05-16T04:20:25;5.70;;;1.70;;
25497;SDS011;13406;53.380;7.226;2023-05-16T04:22:50;5.77;;;1.80;;
25497;SDS011;13406;53.380;7.226;2023-05-16T04:25:16;8.30;;;2.50;;
25497;SDS011;13406;53.380;7.226;2023-05-16T04:27:41;6.93;;;1.80;;
25497;SDS011;13406;53.380;7.226;2023-05-16T04:30:07;6.60;;;2.07;;
25497;SDS011;13406;53.380;7.226;2023-05-16T04:32:33;6.97;;;1.80;;
25497;SDS011;13406;53.380;7.226;2023-05-16T04:34:59;5.93;;;1.43;;
25497;SDS011;13406;53.380;7.226;2023-05-16T04:37:25;7.53;;;2.00;;
25497;SDS011;13406;53.380;7.226;2023-05-16T04:39:50;6.70;;;1.67;;
25497;SDS011;13406;53.380;7.226;2023-05-16T04:42:18;6.33;;;2.10;;
25497;SDS011;13406;53.380;7.226;2023-05-16T04:44:43;5.90;;;1.63;;
25497;SDS011;13406;53.380;7.226;2023-05-16T04:47:11;6.70;;;1.70;;
25497;SDS011;13406;53.380;7.226;2023-05-16T04:49:37;5.37;;;1.90;;
25497;SDS011;13406;53.380;7.226;2023-05-16T04:52:02;10.30;;;2.27;;
25497;SDS011;13406;53.380;7.226;2023-05-16T04:54:28;9.13;;;2.07;;
25497;SDS011;13406;53.380;7.226;2023-05-16T04:56:53;4.53;;;1.50;;
25497;SDS011;13406;53.380;7.226;2023-05-16T04:59:19;8.70;;;1.57;;
25497;SDS011;13406;53.380;7.226;2023-05-16T05:01:45;7.60;;;1.87;;
25497;SDS011;13406;53.380;7.226;2023-05-16T05:04:11;6.77;;;1.60;;
25497;SDS011;13406;53.380;7.226;2023-05-16T05:06:36;10.50;;;1.73;;
25497;SDS011;13406;53.380;7.226;2023-05-16T05:09:02;7.53;;;1.63;;
25497;SDS011;13406;53.380;7.226;2023-05-16T05:11:29;8.13;;;1.83;;
25497;SDS011;13406;53.380;7.226;2023-05-16T05:13:55;9.90;;;2.70;;
25497;SDS011;13406;53.380;7.226;2023-05-16T05:16:20;5.33;;;1.60;;
25497;SDS011;13406;53.380;7.226;2023-05-16T05:18:46;7.57;;;1.67;;
25497;SDS011;13406;53.380;7.226;2023-05-16T05:21:12;7.97;;;1.73;;
25497;SDS011;13406;53.380;7.226;2023-05-16T05:23:38;3.70;;;1.20;;
25497;SDS011;13406;53.380;7.226;2023-05-16T05:26:04;6.50;;;1.40;;
25497;SDS011;13406;53.380;7.226;2023-05-16T05:28:29;8.93;;;1.70;;
25497;SDS011;13406;53.380;7.226;2023-05-16T05:30:55;4.97;;;1.73;;
25497;SDS011;13406;53.380;7.226;2023-05-16T05:33:24;9.00;;;2.03;;
25497;SDS011;13406;53.380;7.226;2023-05-16T05:35:51;4.33;;;1.70;;
25497;SDS011;13406;53.380;7.226;2023-05-16T05:38:18;5.30;;;1.67;;
25497;SDS011;13406;53.380;7.226;2023-05-16T05:40:44;4.37;;;1.30;;
25497;SDS011;13406;53.380;7.226;2023-05-16T05:43:10;9.27;;;2.07;;
25497;SDS011;13406;53.380;7.226;2023-05-16T05:45:35;7.17;;;1.77;;
25497;SDS011;13406;53.380;7.226;2023-05-16T05:48:01;9.10;;;1.87;;
25497;SDS011;13406;53.380;7.226;2023-05-16T05:50:27;6.33;;;1.53;;
25497;SDS011;13406;53.380;7.226;2023-05-16T05:52:53;8.03;;;2.17;;
25497;SDS011;13406;53.380;7.226;2023-05-16T05:55:20;5.70;;;1.63;;
25497;SDS011;13406;53.380;7.226;2023-05-16T05:57:45;5.00;;;1.90;;
25497;SDS011;13406;53.380;7.226;2023-05-16T06:00:11;6.70;;;2.17;;
25497;SDS011;13406;53.380;7.226;2023-05-16T06:02:37;9.73;;;1.70;;
25497;SDS011;13406;53.380;7.226;2023-05-16T06:05:03;3.57;;;1.30;;
25497;SDS011;13406;53.380;7.226;2023-05-16T06:07:28;6.23;;;1.73;;
25497;SDS011;13406;53.380;7.226;2023-05-16T06:09:54;8.33;;;1.93;;
25497;SDS011;13406;53.380;7.226;2023-05-16T06:12:19;4.70;;;1.57;;
25497;SDS011;13406;53.380;7.226;2023-05-16T06:14:45;6.73;;;2.23;;
25497;SDS011;13406;53.380;7.226;2023-05-16T06:17:10;6.53;;;1.60;;
25497;SDS011;13406;53.380;7.226;2023-05-16T06:19:35;6.27;;;1.20;;
25497;SDS011;13406;53.380;7.226;2023-05-16T06:22:01;7.50;;;1.33;;
25497;SDS011;13406;53.380;7.226;2023-05-16T06:24:26;4.10;;;1.13;;
25497;SDS011;13406;53.380;7.226;2023-05-16T06:26:53;5.93;;;1.83;;
25497;SDS011;13406;53.380;7.226;2023-05-16T06:29:19;5.30;;;1.53;;
25497;SDS011;13406;53.380;7.226;2023-05-16T06:31:44;5.93;;;1.83;;
25497;SDS011;13406;53.380;7.226;2023-05-16T06:34:11;4.57;;;1.33;;
25497;SDS011;13406;53.380;7.226;2023-05-16T06:36:36;8.90;;;1.70;;
25497;SDS011;13406;53.380;7.226;2023-05-16T06:39:02;9.03;;;1.30;;
25497;SDS011;13406;53.380;7.226;2023-05-16T06:41:28;12.80;;;1.90;;
25497;SDS011;13406;53.380;7.226;2023-05-16T06:43:54;8.83;;;1.77;;
25497;SDS011;13406;53.380;7.226;2023-05-16T06:46:20;3.93;;;1.40;;
25497;SDS011;13406;53.380;7.226;2023-05-16T06:48:45;7.00;;;1.90;;
25497;SDS011;13406;53.380;7.226;2023-05-16T06:51:11;7.73;;;1.57;;
25497;SDS011;13406;53.380;7.226;2023-05-16T06:53:36;10.17;;;1.87;;
25497;SDS011;13406;53.380;7.226;2023-05-16T06:56:01;9.53;;;2.07;;
25497;SDS011;13406;53.380;7.226;2023-05-16T06:58:27;6.83;;;1.80;;
25497;SDS011;13406;53.380;7.226;2023-05-16T07:00:52;7.30;;;1.77;;
25497;SDS011;13406;53.380;7.226;2023-05-16T07:03:18;10.50;;;1.87;;
25497;SDS011;13406;53.380;7.226;2023-05-16T07:05:43;5.13;;;1.57;;
25497;SDS011;13406;53.380;7.226;2023-05-16T07:08:09;9.43;;;2.30;;
25497;SDS011;13406;53.380;7.226;2023-05-16T07:10:35;6.13;;;1.50;;
25497;SDS011;13406;53.380;7.226;2023-05-16T07:13:00;4.33;;;1.43;;
25497;SDS011;13406;53.380;7.226;2023-05-16T07:15:26;7.33;;;1.60;;
25497;SDS011;13406;53.380;7.226;2023-05-16T07:17:51;5.43;;;1.50;;
25497;SDS011;13406;53.380;7.226;2023-05-16T07:20:17;8.43;;;1.80;;
25497;SDS011;13406;53.380;7.226;2023-05-16T07:22:42;4.30;;;1.30;;
25497;SDS011;13406;53.380;7.226;2023-05-16T07:25:08;6.17;;;1.80;;
25497;SDS011;13406;53.380;7.226;2023-05-16T07:27:37;4.80;;;1.50;;
25497;SDS011;13406;53.380;7.226;2023-05-16T07:30:05;7.33;;;2.10;;
25497;SDS011;13406;53.380;7.226;2023-05-16T07:32:37;10.90;;;2.30;;
25497;SDS011;13406;53.380;7.226;2023-05-16T07:35:03;6.40;;;1.80;;
25497;SDS011;13406;53.380;7.226;2023-05-16T07:37:29;9.83;;;2.20;;
25497;SDS011;13406;53.380;7.226;2023-05-16T07:39:54;8.93;;;1.83;;
25497;SDS011;13406;53.380;7.226;2023-05-16T07:42:20;6.70;;;2.30;;
25497;SDS011;13406;53.380;7.226;2023-05-16T07:44:45;4.53;;;1.97;;
25497;SDS011;13406;53.380;7.226;2023-05-16T07:47:11;10.90;;;2.13;;
25497;SDS011;13406;53.380;7.226;2023-05-16T07:49:36;6.97;;;1.87;;
25497;SDS011;13406;53.380;7.226;2023-05-16T07:52:02;10.33;;;2.07;;
25497;SDS011;13406;53.380;7.226;2023-05-16T07:54:27;4.97;;;1.60;;
25497;SDS011;13406;53.380;7.226;2023-05-16T07:56:53;7.60;;;1.40;;
25497;SDS011;13406;53.380;7.226;2023-05-16T07:59:18;5.90;;;1.80;;
25497;SDS011;13406;53.380;7.226;2023-05-16T08:01:44;5.57;;;1.73;;
25497;SDS011;13406;53.380;7.226;2023-05-16T08:04:10;9.70;;;1.90;;
25497;SDS011;13406;53.380;7.226;2023-05-16T08:06:35;4.10;;;1.00;;
25497;SDS011;13406;53.380;7.226;2023-05-16T08:09:01;4.43;;;0.90;;
25497;SDS011;13406;53.380;7.226;2023-05-16T08:11:27;4.33;;;1.30;;
25497;SDS011;13406;53.380;7.226;2023-05-16T08:13:52;3.20;;;1.10;;
25497;SDS011;13406;53.380;7.226;2023-05-16T08:16:18;2.80;;;1.00;;
25497;SDS011;13406;53.380;7.226;2023-05-16T08:18:43;5.63;;;1.57;;
25497;SDS011;13406;53.380;7.226;2023-05-16T08:21:09;8.43;;;2.03;;
25497;SDS011;13406;53.380;7.226;2023-05-16T08:23:35;7.40;;;1.73;;
25497;SDS011;13406;53.380;7.226;2023-05-16T08:26:00;4.87;;;1.60;;
25497;SDS011;13406;53.380;7.226;2023-05-16T08:28:27;6.67;;;1.60;;
25497;SDS011;13406;53.380;7.226;2023-05-16T08:30:53;6.23;;;1.70;;
25497;SDS011;13406;53.380;7.226;2023-05-16T08:33:18;8.60;;;2.47;;
25497;SDS011;13406;53.380;7.226;2023-05-16T08:35:44;10.60;;;2.43;;
25497;SDS011;13406;53.380;7.226;2023-05-16T08:38:10;6.67;;;1.50;;
25497;SDS011;13406;53.380;7.226;2023-05-16T08:40:36;5.40;;;1.30;;
25497;SDS011;13406;53.380;7.226;2023-05-16T08:43:01;3.80;;;1.20;;
25497;SDS011;13406;53.380;7.226;2023-05-16T08:45:28;5.97;;;1.60;;
25497;SDS011;13406;53.380;7.226;2023-05-16T08:47:55;4.67;;;1.23;;
25497;SDS011;13406;53.380;7.226;2023-05-16T08:50:21;2.40;;;0.90;;
25497;SDS011;13406;53.380;7.226;2023-05-16T08:52:49;1.70;;;0.83;;
25497;SDS011;13406;53.380;7.226;2023-05-16T08:55:16;3.53;;;1.47;;
25497;SDS011;13406;53.380;7.226;2023-05-16T08:57:44;4.50;;;1.10;;
25497;SDS011;13406;53.380;7.226;2023-05-16T09:00:10;5.07;;;1.30;;
25497;SDS011;13406;53.380;7.226;2023-05-16T09:02:40;6.40;;;1.43;;
25497;SDS011;13406;53.380;7.226;2023-05-16T09:05:10;9.93;;;2.07;;
25497;SDS011;13406;53.380;7.226;2023-05-16T09:07:40;7.80;;;1.67;;
25497;SDS011;13406;53.380;7.226;2023-05-16T09:10:07;3.27;;;1.17;;
25497;SDS011;13406;53.380;7.226;2023-05-16T09:12:33;6.27;;;1.70;;
25497;SDS011;13406;53.380;7.226;2023-05-16T09:15:03;6.03;;;1.40;;
25497;SDS011;13406;53.380;7.226;2023-05-16T09:17:42;4.20;;;1.50;;
25497;SDS011;13406;53.380;7.226;2023-05-16T09:20:12;4.40;;;1.13;;
25497;SDS011;13406;53.380;7.226;2023-05-16T09:22:40;3.63;;;0.80;;
25497;SDS011;13406;53.380;7.226;2023-05-16T09:25:24;3.27;;;0.83;;
25497;SDS011;13406;53.380;7.226;2023-05-16T09:27:55;2.37;;;0.90;;
25497;SDS011;13406;53.380;7.226;2023-05-16T09:30:22;3.93;;;0.90;;
25497;SDS011;13406;53.380;7.226;2023-05-16T09:32:52;5.50;;;1.30;;
25497;SDS011;13406;53.380;7.226;2023-05-16T09:35:18;3.43;;;0.83;;
25497;SDS011;13406;53.380;7.226;2023-05-16T09:37:45;3.83;;;1.37;;
25497;SDS011;13406;53.380;7.226;2023-05-16T09:40:11;10.63;;;1.57;;
25497;SDS011;13406;53.380;7.226;2023-05-16T09:42:37;7.83;;;2.13;;
25497;SDS011;13406;53.380;7.226;2023-05-16T09:45:03;4.33;;;1.47;;
25497;SDS011;13406;53.380;7.226;2023-05-16T09:47:29;5.37;;;1.60;;
25497;SDS011;13406;53.380;7.226;2023-05-16T09:49:54;4.80;;;1.90;;
25497;SDS011;13406;53.380;7.226;2023-05-16T09:52:20;4.80;;;1.83;;
25497;SDS011;13406;53.380;7.226;2023-05-16T09:54:46;6.30;;;1.67;;
25497;SDS011;13406;53.380;7.226;2023-05-16T09:57:18;4.87;;;1.27;;
25497;SDS011;13406;53.380;7.226;2023-05-16T09:59:47;8.37;;;1.53;;
25497;SDS011;13406;53.380;7.226;2023-05-16T10:02:14;3.43;;;1.40;;
25497;SDS011;13406;53.380;7.226;2023-05-16T10:04:40;3.83;;;1.20;;
25497;SDS011;13406;53.380;7.226;2023-05-16T10:07:06;3.70;;;1.40;;
25497;SDS011;13406;53.380;7.226;2023-05-16T10:09:33;3.97;;;1.10;;
25497;SDS011;13406;53.380;7.226;2023-05-16T10:12:05;5.40;;;1.70;;
25497;SDS011;13406;53.380;7.226;2023-05-16T10:14:33;4.70;;;1.87;;
25497;SDS011;13406;53.380;7.226;2023-05-16T10:17:00;5.63;;;1.77;;
25497;SDS011;13406;53.380;7.226;2023-05-16T10:19:28;4.87;;;1.60;;
25497;SDS011;13406;53.380;7.226;2023-05-16T10:21:57;7.40;;;2.03;;
25497;SDS011;13406;53.380;7.226;2023-05-16T10:24:28;13.47;;;1.33;;
25497;SDS011;13406;53.380;7.226;2023-05-16T10:27:01;4.20;;;1.80;;
25497;SDS011;13406;53.380;7.226;2023-05-16T10:29:27;5.97;;;1.60;;
25497;SDS011;13406;53.380;7.226;2023-05-16T10:31:53;6.17;;;1.73;;
25497;SDS011;13406;53.380;7.226;2023-05-16T10:34:19;16.10;;;2.50;;
25497;SDS011;13406;53.380;7.226;2023-05-16T10:36:44;7.23;;;2.00;;
25497;SDS011;13406;53.380;7.226;2023-05-16T10:39:10;1.57;;;1.00;;
25497;SDS011;13406;53.380;7.226;2023-05-16T10:41:37;3.63;;;1.27;;
25497;SDS011;13406;53.380;7.226;2023-05-16T10:44:03;3.03;;;1.10;;
25497;SDS011;13406;53.380;7.226;2023-05-16T10:46:36;2.50;;;0.73;;
25497;SDS011;13406;53.380;7.226;2023-05-16T10:49:18;2.80;;;1.07;;
25497;SDS011;13406;53.380;7.226;2023-05-16T10:54:32;1.53;;;0.80;;
25497;SDS011;13406;53.380;7.226;2023-05-16T10:57:02;2.10;;;1.10;;
25497;SDS011;13406;53.380;7.226;2023-05-16T10:59:30;6.20;;;1.00;;
25497;SDS011;13406;53.380;7.226;2023-05-16T11:02:53;2.47;;;1.00;;
25497;SDS011;13406;53.380;7.226;2023-05-16T11:04:58;7.70;;;1.47;;
25497;SDS011;13406;53.380;7.226;2023-05-16T11:07:33;7.40;;;1.77;;
25497;SDS011;13406;53.380;7.226;2023-05-16T11:10:10;9.23;;;2.20;;
25497;SDS011;13406;53.380;7.226;2023-05-16T11:12:44;6.73;;;1.83;;
25497;SDS011;13406;53.380;7.226;2023-05-16T11:17:45;6.13;;;1.97;;
25497;SDS011;13406;53.380;7.226;2023-05-16T11:20:28;8.60;;;2.00;;
25497;SDS011;13406;53.380;7.226;2023-05-16T11:25:51;7.43;;;2.20;;
25497;SDS011;13406;53.380;7.226;2023-05-16T11:28:18;8.70;;;2.07;;
25497;SDS011;13406;53.380;7.226;2023-05-16T11:30:49;6.33;;;1.70;;
25497;SDS011;13406;53.380;7.226;2023-05-16T11:33:16;9.13;;;2.57;;
25497;SDS011;13406;53.380;7.226;2023-05-16T11:35:42;4.50;;;1.43;;
25497;SDS011;13406;53.380;7.226;2023-05-16T11:38:11;8.63;;;2.03;;
25497;SDS011;13406;53.380;7.226;2023-05-16T11:40:43;8.03;;;1.87;;
25497;SDS011;13406;53.380;7.226;2023-05-16T11:43:09;7.57;;;2.10;;
25497;SDS011;13406;53.380;7.226;2023-05-16T11:45:35;7.30;;;1.77;;
25497;SDS011;13406;53.380;7.226;2023-05-16T11:48:01;10.23;;;1.73;;
25497;SDS011;13406;53.380;7.226;2023-05-16T11:50:33;6.53;;;2.10;;
25497;SDS011;13406;53.380;7.226;2023-05-16T11:52:58;5.67;;;1.57;;
25497;SDS011;13406;53.380;7.226;2023-05-16T11:55:27;10.03;;;2.40;;
25497;SDS011;13406;53.380;7.226;2023-05-16T11:57:54;6.53;;;1.40;;
25497;SDS011;13406;53.380;7.226;2023-05-16T12:00:25;9.60;;;2.23;;
25497;SDS011;13406;53.380;7.226;2023-05-16T12:02:51;5.67;;;1.50;;
25497;SDS011;13406;53.380;7.226;2023-05-16T12:05:18;5.63;;;1.70;;
25497;SDS011;13406;53.380;7.226;2023-05-16T12:07:49;5.00;;;1.57;;
25497;SDS011;13406;53.380;7.226;2023-05-16T12:10:15;6.10;;;1.90;;
25497;SDS011;13406;53.380;7.226;2023-05-16T12:12:42;4.87;;;1.50;;
25497;SDS011;13406;53.380;7.226;2023-05-16T12:15:10;8.40;;;2.00;;
25497;SDS011;13406;53.380;7.226;2023-05-16T12:17:37;12.03;;;2.10;;
25497;SDS011;13406;53.380;7.226;2023-05-16T12:20:05;9.03;;;2.50;;
25497;SDS011;13406;53.380;7.226;2023-05-16T12:22:34;10.90;;;2.80;;
25497;SDS011;13406;53.380;7.226;2023-05-16T12:27:47;9.70;;;2.50;;
25497;SDS011;13406;53.380;7.226;2023-05-16T12:30:15;11.67;;;3.00;;
25497;SDS011;13406;53.380;7.226;2023-05-16T12:32:42;6.10;;;1.77;;
25497;SDS011;13406;53.380;7.226;2023-05-16T12:35:07;8.80;;;2.40;;
25497;SDS011;13406;53.380;7.226;2023-05-16T12:37:36;5.63;;;2.03;;
25497;SDS011;13406;53.380;7.226;2023-05-16T12:40:02;6.67;;;2.03;;
25497;SDS011;13406;53.380;7.226;2023-05-16T12:42:28;5.50;;;1.60;;
25497;SDS011;13406;53.380;7.226;2023-05-16T12:44:55;9.27;;;2.20;;
25497;SDS011;13406;53.380;7.226;2023-05-16T12:47:20;9.50;;;2.23;;
25497;SDS011;13406;53.380;7.226;2023-05-16T12:49:46;8.23;;;2.40;;
25497;SDS011;13406;53.380;7.226;2023-05-16T12:52:19;8.57;;;2.13;;
25497;SDS011;13406;53.380;7.226;2023-05-16T12:54:46;8.53;;;2.30;;
25497;SDS011;13406;53.380;7.226;2023-05-16T12:57:12;9.80;;;2.87;;
25497;SDS011;13406;53.380;7.226;2023-05-16T12:59:38;12.77;;;2.70;;
25497;SDS011;13406;53.380;7.226;2023-05-16T13:02:04;6.70;;;2.17;;
25497;SDS011;13406;53.380;7.226;2023-05-16T13:04:29;8.43;;;2.17;;
25497;SDS011;13406;53.380;7.226;2023-05-16T13:06:55;8.60;;;3.07;;
25497;SDS011;13406;53.380;7.226;2023-05-16T13:09:21;8.60;;;2.47;;
25497;SDS011;13406;53.380;7.226;2023-05-16T13:11:47;10.30;;;4.03;;
25497;SDS011;13406;53.380;7.226;2023-05-16T13:14:14;9.27;;;3.80;;
25497;SDS011;13406;53.380;7.226;2023-05-16T13:16:41;7.77;;;3.17;;
25497;SDS011;13406;53.380;7.226;2023-05-16T13:19:06;8.50;;;3.87;;
25497;SDS011;13406;53.380;7.226;2023-05-16T13:21:32;9.67;;;3.13;;
25497;SDS011;13406;53.380;7.226;2023-05-16T13:23:57;7.80;;;2.97;;
25497;SDS011;13406;53.380;7.226;2023-05-16T13:26:23;7.17;;;3.30;;
25497;SDS011;13406;53.380;7.226;2023-05-16T13:28:48;9.00;;;3.80;;
25497;SDS011;13406;53.380;7.226;2023-05-16T13:31:17;7.60;;;3.10;;
25497;SDS011;13406;53.380;7.226;2023-05-16T13:33:43;15.30;;;4.40;;
25497;SDS011;13406;53.380;7.226;2023-05-16T13:36:08;10.73;;;3.50;;
25497;SDS011;13406;53.380;7.226;2023-05-16T13:38:34;9.80;;;3.00;;
25497;SDS011;13406;53.380;7.226;2023-05-16T13:41:01;5.47;;;2.93;;
25497;SDS011;13406;53.380;7.226;2023-05-16T13:43:26;11.03;;;3.80;;
25497;SDS011;13406;53.380;7.226;2023-05-16T13:45:52;8.17;;;3.40;;
25497;SDS011;13406;53.380;7.226;2023-05-16T13:48:17;7.50;;;2.97;;
25497;SDS011;13406;53.380;7.226;2023-05-16T13:50:43;7.40;;;2.93;;
25497;SDS011;13406;53.380;7.226;2023-05-16T13:53:09;8.43;;;2.93;;
25497;SDS011;13406;53.380;7.226;2023-05-16T13:55:34;8.40;;;3.00;;
25497;SDS011;13406;53.380;7.226;2023-05-16T13:58:00;6.40;;;1.90;;
25497;SDS011;13406;53.380;7.226;2023-05-16T14:00:26;8.13;;;2.50;;
25497;SDS011;13406;53.380;7.226;2023-05-16T14:02:52;8.30;;;2.50;;
25497;SDS011;13406;53.380;7.226;2023-05-16T14:05:17;6.93;;;2.60;;
25497;SDS011;13406;53.380;7.226;2023-05-16T14:07:42;7.17;;;2.60;;
25497;SDS011;13406;53.380;7.226;2023-05-16T14:10:08;10.43;;;3.37;;
25497;SDS011;13406;53.380;7.226;2023-05-16T14:12:33;7.30;;;2.40;;
25497;SDS011;13406;53.380;7.226;2023-05-16T14:14:59;9.13;;;3.00;;
25497;SDS011;13406;53.380;7.226;2023-05-16T14:17:24;5.27;;;2.67;;
25497;SDS011;13406;53.380;7.226;2023-05-16T14:19:50;6.30;;;2.20;;
25497;SDS011;13406;53.380;7.226;2023-05-16T14:22:17;10.23;;;2.63;;
25497;SDS011;13406;53.380;7.226;2023-05-16T14:24:43;10.27;;;3.27;;
25497;SDS011;13406;53.380;7.226;2023-05-16T14:27:08;8.10;;;2.73;;
25497;SDS011;13406;53.380;7.226;2023-05-16T14:29:34;6.97;;;2.67;;
25497;SDS011;13406;53.380;7.226;2023-05-16T14:31:59;6.40;;;2.50;;
25497;SDS011;13406;53.380;7.226;2023-05-16T14:34:24;10.00;;;2.80;;
25497;SDS011;13406;53.380;7.226;2023-05-16T14:36:50;8.77;;;2.50;;
25497;SDS011;13406;53.380;7.226;2023-05-16T14:39:15;6.27;;;2.77;;
25497;SDS011;13406;53.380;7.226;2023-05-16T14:41:41;6.80;;;2.63;;
25497;SDS011;13406;53.380;7.226;2023-05-16T14:44:08;6.57;;;3.10;;
25497;SDS011;13406;53.380;7.226;2023-05-16T14:46:33;8.20;;;3.30;;
25497;SDS011;13406;53.380;7.226;2023-05-16T14:48:59;5.13;;;2.20;;
25497;SDS011;13406;53.380;7.226;2023-05-16T14:51:25;9.90;;;3.10;;
25497;SDS011;13406;53.380;7.226;2023-05-16T14:53:50;7.73;;;3.17;;
25497;SDS011;13406;53.380;7.226;2023-05-16T14:56:16;6.80;;;3.07;;
25497;SDS011;13406;53.380;7.226;2023-05-16T14:58:41;6.70;;;3.53;;
25497;SDS011;13406;53.380;7.226;2023-05-16T15:01:07;6.53;;;3.17;;
25497;SDS011;13406;53.380;7.226;2023-05-16T15:03:32;8.00;;;4.37;;
25497;SDS011;13406;53.380;7.226;2023-05-16T15:05:58;4.40;;;2.87;;
25497;SDS011;13406;53.380;7.226;2023-05-16T15:08:23;5.80;;;2.73;;
25497;SDS011;13406;53.380;7.226;2023-05-16T15:10:48;10.00;;;3.70;;